sensor_id;sensor_type;location;lat;lon;timestamp;temperature;humidity
32173;DHT22;18679;45.190;5.722;2023-04-24T00:00:40;16.40;62.50
32173;DHT22;18679;45.190;5.722;2023-04-24T00:03:41;16.30;62.40
32173;DHT22;18679;45.190;5.722;2023-04-24T00:06:43;16.40;62.50
32173;DHT22;18679;45.190;5.722;2023-04-24T00:09:44;16.40;62.30
32173;DHT22;18679;45.190;5.722;2023-04-24T00:12:45;16.40;62.20
32173;DHT22;18679;45.190;5.722;2023-04-24T00:15:46;16.40;62.10
32173;DHT22;18679;45.190;5.722;2023-04-24T00:18:47;16.40;61.90
32173;DHT22;18679;45.190;5.722;2023-04-24T00:21:48;16.40;61.60
32173;DHT22;18679;45.190;5.722;2023-04-24T00:24:53;16.40;61.40
32173;DHT22;18679;45.190;5.722;2023-04-24T00:27:54;16.40;61.30
32173;DHT22;18679;45.190;5.722;2023-04-24T00:30:55;16.40;61.20
32173;DHT22;18679;45.190;5.722;2023-04-24T00:33:56;16.40;61.10
32173;DHT22;18679;45.190;5.722;2023-04-24T00:36:57;16.40;61.10
32173;DHT22;18679;45.190;5.722;2023-04-24T00:39:58;16.40;61.10
32173;DHT22;18679;45.190;5.722;2023-04-24T00:42:58;16.40;61.20
32173;DHT22;18679;45.190;5.722;2023-04-24T00:46:00;16.50;61.20
32173;DHT22;18679;45.190;5.722;2023-04-24T00:49:02;16.40;61.20
32173;DHT22;18679;45.190;5.722;2023-04-24T00:52:03;16.50;61.20
32173;DHT22;18679;45.190;5.722;2023-04-24T00:55:08;16.50;61.10
32173;DHT22;18679;45.190;5.722;2023-04-24T00:58:09;16.50;61.00
32173;DHT22;18679;45.190;5.722;2023-04-24T01:01:10;16.50;61.00
32173;DHT22;18679;45.190;5.722;2023-04-24T01:04:12;16.50;60.90
32173;DHT22;18679;45.190;5.722;2023-04-24T01:07:14;16.50;60.90
32173;DHT22;18679;45.190;5.722;2023-04-24T01:10:15;16.50;60.80
32173;DHT22;18679;45.190;5.722;2023-04-24T01:13:19;16.50;60.80
32173;DHT22;18679;45.190;5.722;2023-04-24T01:16:21;16.50;61.60
32173;DHT22;18679;45.190;5.722;2023-04-24T01:19:22;16.50;60.70
32173;DHT22;18679;45.190;5.722;2023-04-24T01:22:23;16.50;60.70
32173;DHT22;18679;45.190;5.722;2023-04-24T01:25:25;16.50;60.80
32173;DHT22;18679;45.190;5.722;2023-04-24T01:28:27;16.50;60.80
32173;DHT22;18679;45.190;5.722;2023-04-24T01:31:28;16.50;60.90
32173;DHT22;18679;45.190;5.722;2023-04-24T01:34:30;16.50;60.80
32173;DHT22;18679;45.190;5.722;2023-04-24T01:37:31;16.50;60.90
32173;DHT22;18679;45.190;5.722;2023-04-24T01:40:34;16.50;61.00
32173;DHT22;18679;45.190;5.722;2023-04-24T01:43:35;16.50;61.10
32173;DHT22;18679;45.190;5.722;2023-04-24T01:46:36;16.50;61.20
32173;DHT22;18679;45.190;5.722;2023-04-24T01:49:38;16.50;61.30
32173;DHT22;18679;45.190;5.722;2023-04-24T01:52:39;16.50;61.40
32173;DHT22;18679;45.190;5.722;2023-04-24T01:55:40;16.40;61.30
32173;DHT22;18679;45.190;5.722;2023-04-24T01:58:42;16.40;61.40
32173;DHT22;18679;45.190;5.722;2023-04-24T02:01:43;16.40;61.50
32173;DHT22;18679;45.190;5.722;2023-04-24T02:04:44;16.30;61.50
32173;DHT22;18679;45.190;5.722;2023-04-24T02:07:45;16.30;61.60
32173;DHT22;18679;45.190;5.722;2023-04-24T02:10:46;16.30;61.70
32173;DHT22;18679;45.190;5.722;2023-04-24T02:13:47;16.30;61.70
32173;DHT22;18679;45.190;5.722;2023-04-24T02:16:48;16.30;61.70
32173;DHT22;18679;45.190;5.722;2023-04-24T02:19:49;16.30;61.80
32173;DHT22;18679;45.190;5.722;2023-04-24T02:22:51;16.20;61.60
32173;DHT22;18679;45.190;5.722;2023-04-24T02:25:52;16.30;61.60
32173;DHT22;18679;45.190;5.722;2023-04-24T02:28:54;16.30;61.60
32173;DHT22;18679;45.190;5.722;2023-04-24T02:31:55;16.30;61.70
32173;DHT22;18679;45.190;5.722;2023-04-24T02:34:56;16.30;61.80
32173;DHT22;18679;45.190;5.722;2023-04-24T02:37:57;16.30;61.80
32173;DHT22;18679;45.190;5.722;2023-04-24T02:40:58;16.30;61.60
32173;DHT22;18679;45.190;5.722;2023-04-24T02:44:00;16.20;61.50
32173;DHT22;18679;45.190;5.722;2023-04-24T02:47:01;16.30;61.50
32173;DHT22;18679;45.190;5.722;2023-04-24T02:50:03;16.30;61.30
32173;DHT22;18679;45.190;5.722;2023-04-24T02:53:04;16.30;61.10
32173;DHT22;18679;45.190;5.722;2023-04-24T02:56:06;16.30;60.90
32173;DHT22;18679;45.190;5.722;2023-04-24T02:59:07;16.30;60.80
32173;DHT22;18679;45.190;5.722;2023-04-24T03:02:08;16.30;60.70
32173;DHT22;18679;45.190;5.722;2023-04-24T03:05:09;16.30;60.60
32173;DHT22;18679;45.190;5.722;2023-04-24T03:08:12;16.30;60.60
32173;DHT22;18679;45.190;5.722;2023-04-24T03:11:13;16.30;60.60
32173;DHT22;18679;45.190;5.722;2023-04-24T03:14:16;16.20;60.40
32173;DHT22;18679;45.190;5.722;2023-04-24T03:17:17;16.30;60.30
32173;DHT22;18679;45.190;5.722;2023-04-24T03:20:18;16.20;61.00
32173;DHT22;18679;45.190;5.722;2023-04-24T03:23:19;16.20;60.30
32173;DHT22;18679;45.190;5.722;2023-04-24T03:26:20;16.20;60.60
32173;DHT22;18679;45.190;5.722;2023-04-24T03:29:35;16.10;60.80
32173;DHT22;18679;45.190;5.722;2023-04-24T03:32:36;16.10;61.00
32173;DHT22;18679;45.190;5.722;2023-04-24T03:35:37;16.10;61.20
32173;DHT22;18679;45.190;5.722;2023-04-24T03:38:43;16.10;61.30
32173;DHT22;18679;45.190;5.722;2023-04-24T03:41:59;16.10;61.40
32173;DHT22;18679;45.190;5.722;2023-04-24T03:45:11;16.00;61.60
32173;DHT22;18679;45.190;5.722;2023-04-24T03:48:15;16.00;61.90
32173;DHT22;18679;45.190;5.722;2023-04-24T03:51:16;16.00;62.00
32173;DHT22;18679;45.190;5.722;2023-04-24T03:54:20;15.90;62.10
32173;DHT22;18679;45.190;5.722;2023-04-24T03:57:21;15.90;62.40
32173;DHT22;18679;45.190;5.722;2023-04-24T04:00:35;15.80;63.40
32173;DHT22;18679;45.190;5.722;2023-04-24T04:04:16;15.80;62.70
32173;DHT22;18679;45.190;5.722;2023-04-24T04:07:19;15.80;62.90
32173;DHT22;18679;45.190;5.722;2023-04-24T04:10:20;15.80;62.90
32173;DHT22;18679;45.190;5.722;2023-04-24T04:13:21;15.80;62.80
32173;DHT22;18679;45.190;5.722;2023-04-24T04:16:22;15.90;62.90
32173;DHT22;18679;45.190;5.722;2023-04-24T04:19:28;15.90;62.80
32173;DHT22;18679;45.190;5.722;2023-04-24T04:22:29;15.90;62.60
32173;DHT22;18679;45.190;5.722;2023-04-24T04:25:33;15.90;62.60
32173;DHT22;18679;45.190;5.722;2023-04-24T04:28:35;15.90;62.60
32173;DHT22;18679;45.190;5.722;2023-04-24T04:31:36;15.90;62.50
32173;DHT22;18679;45.190;5.722;2023-04-24T04:34:42;15.80;62.50
32173;DHT22;18679;45.190;5.722;2023-04-24T04:37:45;15.90;62.50
32173;DHT22;18679;45.190;5.722;2023-04-24T04:40:59;15.80;62.50
32173;DHT22;18679;45.190;5.722;2023-04-24T04:44:04;15.90;62.60
32173;DHT22;18679;45.190;5.722;2023-04-24T04:47:06;15.90;62.40
32173;DHT22;18679;45.190;5.722;2023-04-24T04:50:11;15.90;63.10
32173;DHT22;18679;45.190;5.722;2023-04-24T04:53:12;15.90;62.20
32173;DHT22;18679;45.190;5.722;2023-04-24T04:56:13;15.80;62.20
32173;DHT22;18679;45.190;5.722;2023-04-24T04:59:16;15.70;62.50
32173;DHT22;18679;45.190;5.722;2023-04-24T05:02:17;15.70;62.90
32173;DHT22;18679;45.190;5.722;2023-04-24T05:05:18;15.60;63.10
32173;DHT22;18679;45.190;5.722;2023-04-24T05:08:20;15.60;63.40
32173;DHT22;18679;45.190;5.722;2023-04-24T05:11:21;15.60;63.50
32173;DHT22;18679;45.190;5.722;2023-04-24T05:14:22;15.50;63.60
32173;DHT22;18679;45.190;5.722;2023-04-24T05:17:23;15.50;63.60
32173;DHT22;18679;45.190;5.722;2023-04-24T05:20:26;15.50;63.60
32173;DHT22;18679;45.190;5.722;2023-04-24T05:23:28;15.50;63.60
32173;DHT22;18679;45.190;5.722;2023-04-24T05:26:31;15.60;63.70
32173;DHT22;18679;45.190;5.722;2023-04-24T05:29:33;15.60;63.60
32173;DHT22;18679;45.190;5.722;2023-04-24T05:32:34;15.60;63.50
32173;DHT22;18679;45.190;5.722;2023-04-24T05:35:35;15.60;63.30
32173;DHT22;18679;45.190;5.722;2023-04-24T05:38:36;15.70;63.20
32173;DHT22;18679;45.190;5.722;2023-04-24T05:41:37;15.80;63.20
32173;DHT22;18679;45.190;5.722;2023-04-24T05:44:38;15.80;63.00
32173;DHT22;18679;45.190;5.722;2023-04-24T05:47:39;15.90;63.00
32173;DHT22;18679;45.190;5.722;2023-04-24T05:50:40;15.90;62.80
32173;DHT22;18679;45.190;5.722;2023-04-24T05:53:41;16.00;62.70
32173;DHT22;18679;45.190;5.722;2023-04-24T05:56:43;16.10;62.70
32173;DHT22;18679;45.190;5.722;2023-04-24T05:59:48;16.10;62.50
32173;DHT22;18679;45.190;5.722;2023-04-24T06:02:50;16.20;62.20
32173;DHT22;18679;45.190;5.722;2023-04-24T06:05:52;16.20;61.90
32173;DHT22;18679;45.190;5.722;2023-04-24T06:08:53;16.20;61.70
32173;DHT22;18679;45.190;5.722;2023-04-24T06:11:54;16.30;61.60
32173;DHT22;18679;45.190;5.722;2023-04-24T06:14:59;16.30;61.60
32173;DHT22;18679;45.190;5.722;2023-04-24T06:18:14;16.20;61.90
32173;DHT22;18679;45.190;5.722;2023-04-24T06:21:16;16.10;62.20
32173;DHT22;18679;45.190;5.722;2023-04-24T06:24:18;16.00;62.50
32173;DHT22;18679;45.190;5.722;2023-04-24T06:27:19;16.00;62.80
32173;DHT22;18679;45.190;5.722;2023-04-24T06:30:20;15.80;62.90
32173;DHT22;18679;45.190;5.722;2023-04-24T06:33:21;15.90;63.40
32173;DHT22;18679;45.190;5.722;2023-04-24T06:36:25;15.80;63.70
32173;DHT22;18679;45.190;5.722;2023-04-24T06:39:27;15.70;64.10
32173;DHT22;18679;45.190;5.722;2023-04-24T06:42:28;15.60;64.40
32173;DHT22;18679;45.190;5.722;2023-04-24T06:45:30;15.60;64.70
32173;DHT22;18679;45.190;5.722;2023-04-24T06:48:31;15.70;64.90
32173;DHT22;18679;45.190;5.722;2023-04-24T06:51:32;15.70;64.90
32173;DHT22;18679;45.190;5.722;2023-04-24T06:54:34;15.80;64.80
32173;DHT22;18679;45.190;5.722;2023-04-24T06:57:35;15.90;64.80
32173;DHT22;18679;45.190;5.722;2023-04-24T07:00:36;16.00;64.60
32173;DHT22;18679;45.190;5.722;2023-04-24T07:03:37;16.10;64.30
32173;DHT22;18679;45.190;5.722;2023-04-24T07:06:38;16.20;64.00
32173;DHT22;18679;45.190;5.722;2023-04-24T07:09:40;16.30;63.80
32173;DHT22;18679;45.190;5.722;2023-04-24T07:12:45;16.40;63.50
32173;DHT22;18679;45.190;5.722;2023-04-24T07:15:47;16.40;63.30
32173;DHT22;18679;45.190;5.722;2023-04-24T07:18:49;16.40;63.20
32173;DHT22;18679;45.190;5.722;2023-04-24T07:21:50;16.40;63.10
32173;DHT22;18679;45.190;5.722;2023-04-24T07:24:51;16.40;63.20
32173;DHT22;18679;45.190;5.722;2023-04-24T07:27:53;16.40;63.40
32173;DHT22;18679;45.190;5.722;2023-04-24T07:30:54;16.40;63.40
32173;DHT22;18679;45.190;5.722;2023-04-24T07:33:55;16.40;63.60
32173;DHT22;18679;45.190;5.722;2023-04-24T07:36:58;16.30;63.70
32173;DHT22;18679;45.190;5.722;2023-04-24T07:39:59;16.40;63.80
32173;DHT22;18679;45.190;5.722;2023-04-24T07:43:00;16.40;63.90
32173;DHT22;18679;45.190;5.722;2023-04-24T07:46:01;16.40;63.80
32173;DHT22;18679;45.190;5.722;2023-04-24T07:49:02;16.50;63.70
32173;DHT22;18679;45.190;5.722;2023-04-24T07:52:04;16.50;63.60
32173;DHT22;18679;45.190;5.722;2023-04-24T07:55:06;16.60;63.60
32173;DHT22;18679;45.190;5.722;2023-04-24T07:58:07;16.60;63.20
32173;DHT22;18679;45.190;5.722;2023-04-24T08:01:08;16.60;62.90
32173;DHT22;18679;45.190;5.722;2023-04-24T08:04:09;16.70;62.70
32173;DHT22;18679;45.190;5.722;2023-04-24T08:07:13;16.70;62.50
32173;DHT22;18679;45.190;5.722;2023-04-24T08:10:15;16.70;62.50
32173;DHT22;18679;45.190;5.722;2023-04-24T08:13:16;16.80;62.20
32173;DHT22;18679;45.190;5.722;2023-04-24T08:16:16;17.00;61.80
32173;DHT22;18679;45.190;5.722;2023-04-24T08:19:17;17.10;61.20
32173;DHT22;18679;45.190;5.722;2023-04-24T08:22:18;17.20;60.70
32173;DHT22;18679;45.190;5.722;2023-04-24T08:25:19;17.20;60.50
32173;DHT22;18679;45.190;5.722;2023-04-24T08:28:21;17.20;60.30
32173;DHT22;18679;45.190;5.722;2023-04-24T08:31:22;17.10;60.00
32173;DHT22;18679;45.190;5.722;2023-04-24T08:34:25;17.00;59.70
32173;DHT22;18679;45.190;5.722;2023-04-24T08:37:27;17.10;59.80
32173;DHT22;18679;45.190;5.722;2023-04-24T08:40:28;17.20;59.80
32173;DHT22;18679;45.190;5.722;2023-04-24T08:43:33;17.30;59.60
32173;DHT22;18679;45.190;5.722;2023-04-24T08:46:37;17.50;59.40
32173;DHT22;18679;45.190;5.722;2023-04-24T08:49:38;17.80;59.20
32173;DHT22;18679;45.190;5.722;2023-04-24T08:52:40;17.80;58.90
32173;DHT22;18679;45.190;5.722;2023-04-24T08:55:43;18.10;58.40
32173;DHT22;18679;45.190;5.722;2023-04-24T08:58:46;18.20;58.10
32173;DHT22;18679;45.190;5.722;2023-04-24T09:01:48;18.30;58.20
32173;DHT22;18679;45.190;5.722;2023-04-24T09:04:52;18.30;58.30
32173;DHT22;18679;45.190;5.722;2023-04-24T09:07:55;18.40;58.30
32173;DHT22;18679;45.190;5.722;2023-04-24T09:10:56;18.50;57.80
32173;DHT22;18679;45.190;5.722;2023-04-24T09:13:59;18.70;57.20
32173;DHT22;18679;45.190;5.722;2023-04-24T09:17:01;18.80;56.30
32173;DHT22;18679;45.190;5.722;2023-04-24T09:20:02;18.80;55.30
32173;DHT22;18679;45.190;5.722;2023-04-24T09:23:03;18.90;54.80
32173;DHT22;18679;45.190;5.722;2023-04-24T09:26:04;19.10;54.60
32173;DHT22;18679;45.190;5.722;2023-04-24T09:29:05;19.30;54.10
32173;DHT22;18679;45.190;5.722;2023-04-24T09:32:20;19.40;53.90
32173;DHT22;18679;45.190;5.722;2023-04-24T09:35:26;19.70;53.70
32173;DHT22;18679;45.190;5.722;2023-04-24T09:38:33;19.90;53.10
32173;DHT22;18679;45.190;5.722;2023-04-24T09:41:35;20.00;52.40
32173;DHT22;18679;45.190;5.722;2023-04-24T09:44:36;20.20;51.90
32173;DHT22;18679;45.190;5.722;2023-04-24T09:47:40;20.40;51.40
32173;DHT22;18679;45.190;5.722;2023-04-24T09:50:46;20.40;50.50
32173;DHT22;18679;45.190;5.722;2023-04-24T09:53:47;20.40;50.60
32173;DHT22;18679;45.190;5.722;2023-04-24T09:56:54;20.50;50.10
32173;DHT22;18679;45.190;5.722;2023-04-24T09:59:57;20.30;49.70
32173;DHT22;18679;45.190;5.722;2023-04-24T10:03:03;20.10;49.50
32173;DHT22;18679;45.190;5.722;2023-04-24T10:06:05;20.00;49.70
32173;DHT22;18679;45.190;5.722;2023-04-24T10:09:12;20.00;49.70
32173;DHT22;18679;45.190;5.722;2023-04-24T10:12:14;20.00;49.80
32173;DHT22;18679;45.190;5.722;2023-04-24T10:15:16;20.10;49.70
32173;DHT22;18679;45.190;5.722;2023-04-24T10:18:21;20.20;49.40
32173;DHT22;18679;45.190;5.722;2023-04-24T10:21:23;20.40;48.30
32173;DHT22;18679;45.190;5.722;2023-04-24T10:24:24;20.60;48.20
32173;DHT22;18679;45.190;5.722;2023-04-24T10:27:26;20.70;48.00
32173;DHT22;18679;45.190;5.722;2023-04-24T10:30:33;20.80;47.30
32173;DHT22;18679;45.190;5.722;2023-04-24T10:33:42;20.70;46.90
32173;DHT22;18679;45.190;5.722;2023-04-24T10:36:50;20.70;47.10
32173;DHT22;18679;45.190;5.722;2023-04-24T10:39:52;20.70;47.00
32173;DHT22;18679;45.190;5.722;2023-04-24T10:42:56;20.70;47.00
32173;DHT22;18679;45.190;5.722;2023-04-24T10:46:02;20.70;47.20
32173;DHT22;18679;45.190;5.722;2023-04-24T10:49:05;20.80;47.00
32173;DHT22;18679;45.190;5.722;2023-04-24T10:52:15;20.90;46.20
32173;DHT22;18679;45.190;5.722;2023-04-24T10:58:52;21.40;44.90
32173;DHT22;18679;45.190;5.722;2023-04-24T11:01:54;21.80;44.50
32173;DHT22;18679;45.190;5.722;2023-04-24T11:05:03;22.30;43.90
32173;DHT22;18679;45.190;5.722;2023-04-24T11:08:15;22.80;42.80
32173;DHT22;18679;45.190;5.722;2023-04-24T11:11:17;23.30;41.50
32173;DHT22;18679;45.190;5.722;2023-04-24T11:14:18;23.30;40.40
32173;DHT22;18679;45.190;5.722;2023-04-24T11:17:29;23.20;39.80
32173;DHT22;18679;45.190;5.722;2023-04-24T11:20:31;23.20;40.20
32173;DHT22;18679;45.190;5.722;2023-04-24T11:23:36;23.40;39.60
32173;DHT22;18679;45.190;5.722;2023-04-24T11:26:38;23.40;39.60
32173;DHT22;18679;45.190;5.722;2023-04-24T11:29:43;23.10;39.80
32173;DHT22;18679;45.190;5.722;2023-04-24T11:32:48;22.90;40.30
32173;DHT22;18679;45.190;5.722;2023-04-24T11:35:51;22.60;40.30
32173;DHT22;18679;45.190;5.722;2023-04-24T11:38:52;22.30;40.50
32173;DHT22;18679;45.190;5.722;2023-04-24T11:41:53;22.00;40.90
32173;DHT22;18679;45.190;5.722;2023-04-24T11:48:11;22.00;41.80
32173;DHT22;18679;45.190;5.722;2023-04-24T11:51:13;22.50;41.50
32173;DHT22;18679;45.190;5.722;2023-04-24T11:54:14;23.10;40.60
32173;DHT22;18679;45.190;5.722;2023-04-24T11:57:16;23.80;39.30
32173;DHT22;18679;45.190;5.722;2023-04-24T12:00:27;24.30;38.00
32173;DHT22;18679;45.190;5.722;2023-04-24T12:03:28;24.90;36.80
32173;DHT22;18679;45.190;5.722;2023-04-24T12:06:29;25.50;35.00
32173;DHT22;18679;45.190;5.722;2023-04-24T12:10:00;25.90;34.20
32173;DHT22;18679;45.190;5.722;2023-04-24T12:13:01;26.40;33.60
32173;DHT22;18679;45.190;5.722;2023-04-24T12:16:03;26.80;32.10
32173;DHT22;18679;45.190;5.722;2023-04-24T12:19:05;27.30;31.10
32173;DHT22;18679;45.190;5.722;2023-04-24T12:22:07;27.70;30.00
32173;DHT22;18679;45.190;5.722;2023-04-24T12:25:10;28.30;29.20
32173;DHT22;18679;45.190;5.722;2023-04-24T12:28:12;28.90;28.80
32173;DHT22;18679;45.190;5.722;2023-04-24T12:31:13;29.40;28.10
32173;DHT22;18679;45.190;5.722;2023-04-24T12:34:19;29.90;27.30
32173;DHT22;18679;45.190;5.722;2023-04-24T12:37:24;30.40;26.60
32173;DHT22;18679;45.190;5.722;2023-04-24T12:40:26;31.00;26.10
32173;DHT22;18679;45.190;5.722;2023-04-24T12:43:27;31.50;25.30
32173;DHT22;18679;45.190;5.722;2023-04-24T12:46:28;32.20;24.70
32173;DHT22;18679;45.190;5.722;2023-04-24T12:49:30;32.80;24.10
32173;DHT22;18679;45.190;5.722;2023-04-24T12:52:32;32.50;23.10
32173;DHT22;18679;45.190;5.722;2023-04-24T12:55:33;31.90;23.60
32173;DHT22;18679;45.190;5.722;2023-04-24T12:58:34;31.80;23.60
32173;DHT22;18679;45.190;5.722;2023-04-24T13:01:35;32.10;23.30
32173;DHT22;18679;45.190;5.722;2023-04-24T13:04:36;33.00;22.50
32173;DHT22;18679;45.190;5.722;2023-04-24T13:07:37;33.80;21.70
32173;DHT22;18679;45.190;5.722;2023-04-24T13:10:38;34.00;21.60
32173;DHT22;18679;45.190;5.722;2023-04-24T13:13:40;34.60;21.10
32173;DHT22;18679;45.190;5.722;2023-04-24T13:16:41;35.20;20.10
32173;DHT22;18679;45.190;5.722;2023-04-24T13:19:43;35.80;19.40
32173;DHT22;18679;45.190;5.722;2023-04-24T13:22:44;36.10;18.60
32173;DHT22;18679;45.190;5.722;2023-04-24T13:25:45;36.50;18.00
32173;DHT22;18679;45.190;5.722;2023-04-24T13:28:48;37.00;17.80
32173;DHT22;18679;45.190;5.722;2023-04-24T13:31:53;37.40;17.50
32173;DHT22;18679;45.190;5.722;2023-04-24T13:34:57;37.60;17.10
32173;DHT22;18679;45.190;5.722;2023-04-24T13:37:58;37.30;16.80
32173;DHT22;18679;45.190;5.722;2023-04-24T13:41:02;37.30;17.10
32173;DHT22;18679;45.190;5.722;2023-04-24T13:44:03;37.50;16.90
32173;DHT22;18679;45.190;5.722;2023-04-24T13:47:05;37.90;16.60
32173;DHT22;18679;45.190;5.722;2023-04-24T13:50:08;38.30;16.60
32173;DHT22;18679;45.190;5.722;2023-04-24T13:53:09;38.30;16.50
32173;DHT22;18679;45.190;5.722;2023-04-24T13:56:10;38.70;16.30
32173;DHT22;18679;45.190;5.722;2023-04-24T13:59:13;38.80;15.70
32173;DHT22;18679;45.190;5.722;2023-04-24T14:02:14;38.80;15.60
32173;DHT22;18679;45.190;5.722;2023-04-24T14:05:15;39.00;15.40
32173;DHT22;18679;45.190;5.722;2023-04-24T14:08:16;39.20;15.20
32173;DHT22;18679;45.190;5.722;2023-04-24T14:11:17;38.60;15.80
32173;DHT22;18679;45.190;5.722;2023-04-24T14:14:19;38.20;15.30
32173;DHT22;18679;45.190;5.722;2023-04-24T14:17:20;37.90;15.30
32173;DHT22;18679;45.190;5.722;2023-04-24T14:20:21;37.30;15.40
32173;DHT22;18679;45.190;5.722;2023-04-24T14:23:22;37.00;15.80
32173;DHT22;18679;45.190;5.722;2023-04-24T14:26:23;36.30;16.20
32173;DHT22;18679;45.190;5.722;2023-04-24T14:29:25;35.20;16.70
32173;DHT22;18679;45.190;5.722;2023-04-24T14:32:26;33.70;17.40
32173;DHT22;18679;45.190;5.722;2023-04-24T14:35:27;32.20;18.30
32173;DHT22;18679;45.190;5.722;2023-04-24T14:38:29;31.00;19.20
32173;DHT22;18679;45.190;5.722;2023-04-24T14:41:31;30.10;19.90
32173;DHT22;18679;45.190;5.722;2023-04-24T14:44:32;29.30;20.40
32173;DHT22;18679;45.190;5.722;2023-04-24T14:47:33;28.60;21.00
32173;DHT22;18679;45.190;5.722;2023-04-24T14:50:35;28.00;21.60
32173;DHT22;18679;45.190;5.722;2023-04-24T14:53:36;27.40;22.20
32173;DHT22;18679;45.190;5.722;2023-04-24T14:56:37;26.90;22.50
32173;DHT22;18679;45.190;5.722;2023-04-24T14:59:40;26.40;23.00
32173;DHT22;18679;45.190;5.722;2023-04-24T15:02:41;26.10;23.40
32173;DHT22;18679;45.190;5.722;2023-04-24T15:05:44;25.90;23.80
32173;DHT22;18679;45.190;5.722;2023-04-24T15:08:46;25.60;23.90
32173;DHT22;18679;45.190;5.722;2023-04-24T15:11:47;25.40;23.90
32173;DHT22;18679;45.190;5.722;2023-04-24T15:14:48;25.10;24.00
32173;DHT22;18679;45.190;5.722;2023-04-24T15:17:49;24.90;24.30
32173;DHT22;18679;45.190;5.722;2023-04-24T15:20:50;24.70;24.40
32173;DHT22;18679;45.190;5.722;2023-04-24T15:23:51;24.50;24.40
32173;DHT22;18679;45.190;5.722;2023-04-24T15:26:53;24.50;25.00
32173;DHT22;18679;45.190;5.722;2023-04-24T15:29:54;24.40;24.70
32173;DHT22;18679;45.190;5.722;2023-04-24T15:33:00;24.30;24.70
32173;DHT22;18679;45.190;5.722;2023-04-24T15:36:01;24.30;24.70
32173;DHT22;18679;45.190;5.722;2023-04-24T15:39:02;24.30;24.70
32173;DHT22;18679;45.190;5.722;2023-04-24T15:42:03;24.60;24.50
32173;DHT22;18679;45.190;5.722;2023-04-24T15:45:05;25.30;24.00
32173;DHT22;18679;45.190;5.722;2023-04-24T15:48:06;26.10;23.10
32173;DHT22;18679;45.190;5.722;2023-04-24T15:51:07;26.90;22.40
32173;DHT22;18679;45.190;5.722;2023-04-24T15:54:08;27.50;22.10
32173;DHT22;18679;45.190;5.722;2023-04-24T15:57:09;27.70;22.10
32173;DHT22;18679;45.190;5.722;2023-04-24T16:00:10;28.30;21.70
32173;DHT22;18679;45.190;5.722;2023-04-24T16:03:14;28.00;21.70
32173;DHT22;18679;45.190;5.722;2023-04-24T16:06:15;27.50;22.10
32173;DHT22;18679;45.190;5.722;2023-04-24T16:09:16;27.00;22.70
32173;DHT22;18679;45.190;5.722;2023-04-24T16:12:18;26.70;23.10
32173;DHT22;18679;45.190;5.722;2023-04-24T16:15:22;26.80;23.10
32173;DHT22;18679;45.190;5.722;2023-04-24T16:18:23;27.70;22.60
32173;DHT22;18679;45.190;5.722;2023-04-24T16:21:23;29.00;21.80
32173;DHT22;18679;45.190;5.722;2023-04-24T16:24:25;29.90;21.20
32173;DHT22;18679;45.190;5.722;2023-04-24T16:27:27;30.30;20.70
32173;DHT22;18679;45.190;5.722;2023-04-24T16:30:28;30.60;20.50
32173;DHT22;18679;45.190;5.722;2023-04-24T16:33:29;30.80;20.50
32173;DHT22;18679;45.190;5.722;2023-04-24T16:36:31;30.80;20.20
32173;DHT22;18679;45.190;5.722;2023-04-24T16:39:33;30.10;20.60
32173;DHT22;18679;45.190;5.722;2023-04-24T16:42:34;29.10;21.30
32173;DHT22;18679;45.190;5.722;2023-04-24T16:45:35;28.10;21.70
32173;DHT22;18679;45.190;5.722;2023-04-24T16:48:36;27.40;22.40
32173;DHT22;18679;45.190;5.722;2023-04-24T16:51:37;26.70;22.80
32173;DHT22;18679;45.190;5.722;2023-04-24T16:54:38;26.30;23.30
32173;DHT22;18679;45.190;5.722;2023-04-24T16:57:39;26.00;23.60
32173;DHT22;18679;45.190;5.722;2023-04-24T17:00:40;25.60;23.90
32173;DHT22;18679;45.190;5.722;2023-04-24T17:03:41;25.40;24.20
32173;DHT22;18679;45.190;5.722;2023-04-24T17:06:42;25.10;24.50
32173;DHT22;18679;45.190;5.722;2023-04-24T17:09:46;24.90;24.90
32173;DHT22;18679;45.190;5.722;2023-04-24T17:12:47;24.70;25.20
32173;DHT22;18679;45.190;5.722;2023-04-24T17:15:48;24.70;25.20
32173;DHT22;18679;45.190;5.722;2023-04-24T17:18:49;24.60;25.20
32173;DHT22;18679;45.190;5.722;2023-04-24T17:21:50;24.50;25.30
32173;DHT22;18679;45.190;5.722;2023-04-24T17:24:51;24.40;25.50
32173;DHT22;18679;45.190;5.722;2023-04-24T17:27:55;24.30;25.80
32173;DHT22;18679;45.190;5.722;2023-04-24T17:30:57;24.10;26.10
32173;DHT22;18679;45.190;5.722;2023-04-24T17:33:58;24.10;26.30
32173;DHT22;18679;45.190;5.722;2023-04-24T17:36:59;24.00;26.50
32173;DHT22;18679;45.190;5.722;2023-04-24T17:40:00;24.00;26.70
32173;DHT22;18679;45.190;5.722;2023-04-24T17:43:01;23.90;26.90
32173;DHT22;18679;45.190;5.722;2023-04-24T17:46:02;23.80;27.00
32173;DHT22;18679;45.190;5.722;2023-04-24T17:49:03;23.70;27.20
32173;DHT22;18679;45.190;5.722;2023-04-24T17:52:07;23.50;27.30
32173;DHT22;18679;45.190;5.722;2023-04-24T17:55:08;23.40;27.40
32173;DHT22;18679;45.190;5.722;2023-04-24T17:58:09;23.20;27.70
32173;DHT22;18679;45.190;5.722;2023-04-24T18:01:11;23.10;27.90
32173;DHT22;18679;45.190;5.722;2023-04-24T18:04:12;22.90;28.00
32173;DHT22;18679;45.190;5.722;2023-04-24T18:07:13;22.80;28.30
32173;DHT22;18679;45.190;5.722;2023-04-24T18:10:13;22.70;28.60
32173;DHT22;18679;45.190;5.722;2023-04-24T18:13:14;22.50;28.90
32173;DHT22;18679;45.190;5.722;2023-04-24T18:16:15;22.30;29.10
32173;DHT22;18679;45.190;5.722;2023-04-24T18:19:16;22.20;29.40
32173;DHT22;18679;45.190;5.722;2023-04-24T18:22:17;22.00;29.40
32173;DHT22;18679;45.190;5.722;2023-04-24T18:25:18;21.90;29.40
32173;DHT22;18679;45.190;5.722;2023-04-24T18:28:25;21.80;29.50
32173;DHT22;18679;45.190;5.722;2023-04-24T18:31:28;21.70;29.80
32173;DHT22;18679;45.190;5.722;2023-04-24T18:34:29;21.60;30.00
32173;DHT22;18679;45.190;5.722;2023-04-24T18:37:30;21.50;30.30
32173;DHT22;18679;45.190;5.722;2023-04-24T18:40:33;21.50;30.90
32173;DHT22;18679;45.190;5.722;2023-04-24T18:43:34;21.40;31.50
32173;DHT22;18679;45.190;5.722;2023-04-24T18:46:35;21.30;31.80
32173;DHT22;18679;45.190;5.722;2023-04-24T18:49:40;21.20;32.10
32173;DHT22;18679;45.190;5.722;2023-04-24T18:52:41;21.20;32.30
32173;DHT22;18679;45.190;5.722;2023-04-24T18:55:42;21.10;32.40
32173;DHT22;18679;45.190;5.722;2023-04-24T18:58:43;21.10;32.50
32173;DHT22;18679;45.190;5.722;2023-04-24T19:01:46;21.00;32.80
32173;DHT22;18679;45.190;5.722;2023-04-24T19:04:47;21.00;33.10
32173;DHT22;18679;45.190;5.722;2023-04-24T19:07:48;21.00;34.00
32173;DHT22;18679;45.190;5.722;2023-04-24T19:10:48;20.90;33.70
32173;DHT22;18679;45.190;5.722;2023-04-24T19:13:51;20.80;34.00
32173;DHT22;18679;45.190;5.722;2023-04-24T19:16:52;20.80;34.30